Time,TemperatureF,DewpointF,PressureIn,WindDirection,WindDirectionDegrees,WindSpeedMPH,WindSpeedGustMPH,Humidity,HourlyPrecipIn,Conditions,Clouds,dailyrainin,SoftwareType,DateUTC
2013-08-06 00:10:00,62.8,48.7,28.88,SW,232,0.0,0.0,60,0.00,,,0.00,Weather View 32 v70,2013-08-06 04:10:00,
2013-08-06 00:20:00,62.8,48.7,28.88,SW,232,0.0,0.0,60,0.00,,,0.00,Weather View 32 v70,2013-08-06 04:20:00,
2013-08-06 00:30:00,62.8,48.7,28.88,SW,232,0.0,0.0,60,0.00,,,0.00,Weather View 32 v70,2013-08-06 04:30:00,
2013-08-06 00:40:00,62.8,48.2,28.88,SW,232,0.0,0.0,59,0.00,,,0.00,Weather View 32 v70,2013-08-06 04:40:00,
2013-08-06 00:49:00,62.8,48.2,28.88,SW,232,0.0,0.0,59,0.00,,,0.00,Weather View 32 v70,2013-08-06 04:49:00,
2013-08-06 01:00:00,62.8,48.7,28.88,SW,232,0.0,0.0,60,0.00,,,0.00,Weather View 32 v70,2013-08-06 05:00:00,
2013-08-06 01:10:00,62.8,48.7,28.88,SW,232,0.0,0.0,60,0.00,,,0.00,Weather View 32 v70,2013-08-06 05:10:00,
2013-08-06 01:20:00,62.8,49.1,28.88,SW,232,0.0,0.0,61,0.00,,,0.00,Weather View 32 v70,2013-08-06 05:20:00,
2013-08-06 01:29:00,63.0,49.7,28.88,SW,232,0.0,0.0,62,0.00,,,0.00,Weather View 32 v70,2013-08-06 05:29:00,
2013-08-06 01:40:00,63.0,49.7,28.88,SW,232,0.0,0.0,62,0.00,,,0.00,Weather View 32 v70,2013-08-06 05:40:00,
2013-08-06 01:49:00,63.0,50.1,28.88,SW,232,0.0,0.0,63,0.00,,,0.00,Weather View 32 v70,2013-08-06 05:49:00,
2013-08-06 02:01:00,63.0,50.1,28.88,SW,232,0.0,0.0,63,0.00,,,0.00,Weather View 32 v70,2013-08-06 06:01:00,
2013-08-06 02:10:00,63.1,50.3,28.88,SW,232,0.0,0.0,63,0.00,,,0.00,Weather View 32 v70,2013-08-06 06:10:00,
2013-08-06 02:20:00,63.3,50.5,28.88,SW,232,0.0,0.0,63,0.00,,,0.00,Weather View 32 v70,2013-08-06 06:20:00,
2013-08-06 02:30:00,63.1,50.3,28.88,SW,232,0.0,0.0,63,0.00,,,0.00,Weather View 32 v70,2013-08-06 06:30:00,
2013-08-06 02:40:00,63.3,50.5,28.88,SW,232,0.0,0.0,63,0.00,,,0.00,Weather View 32 v70,2013-08-06 06:40:00,
2013-08-06 02:50:00,63.3,50.5,28.88,SW,232,0.0,0.0,63,0.00,,,0.00,Weather View 32 v70,2013-08-06 06:50:00,
2013-08-06 03:00:00,63.3,50.5,28.88,SW,232,0.0,0.0,63,0.00,,,0.00,Weather View 32 v70,2013-08-06 07:00:00,
2013-08-06 03:10:00,63.5,50.6,28.88,SW,232,0.0,0.0,63,0.00,,,0.00,Weather View 32 v70,2013-08-06 07:10:00,
2013-08-06 03:20:00,63.3,50.5,28.88,SW,232,0.0,0.0,63,0.00,,,0.00,Weather View 32 v70,2013-08-06 07:20:00,
2013-08-06 03:29:00,63.3,50.9,28.88,SW,232,0.0,0.0,64,0.00,,,0.00,Weather View 32 v70,2013-08-06 07:29:00,
2013-08-06 03:40:00,63.5,51.1,28.85,SW,232,0.0,0.0,64,0.00,,,0.00,Weather View 32 v70,2013-08-06 07:40:00,
2013-08-06 03:50:00,63.5,51.1,28.85,SW,232,0.0,0.0,64,0.00,,,0.00,Weather View 32 v70,2013-08-06 07:50:00,
2013-08-06 04:00:00,63.5,51.5,28.88,SW,232,0.0,0.0,65,0.00,,,0.00,Weather View 32 v70,2013-08-06 08:00:00,
2013-08-06 04:10:00,63.5,51.5,28.85,SW,232,0.0,0.0,65,0.00,,,0.00,Weather View 32 v70,2013-08-06 08:10:00,
2013-08-06 04:20:00,63.5,51.9,28.85,SW,232,0.0,0.0,66,0.00,,,0.00,Weather View 32 v70,2013-08-06 08:20:00,
2013-08-06 04:30:00,63.5,51.9,28.85,SW,232,0.0,0.0,66,0.00,,,0.00,Weather View 32 v70,2013-08-06 08:30:00,
2013-08-06 04:39:00,63.5,52.3,28.88,SW,232,0.0,0.0,67,0.00,,,0.00,Weather View 32 v70,2013-08-06 08:39:00,
2013-08-06 04:50:00,63.3,52.5,28.88,SW,232,0.0,0.0,68,0.00,,,0.00,Weather View 32 v70,2013-08-06 08:50:00,
2013-08-06 05:00:00,63.1,52.8,28.88,SW,232,0.0,0.0,69,0.00,,,0.00,Weather View 32 v70,2013-08-06 09:00:00,
2013-08-06 05:10:00,63.0,53.0,28.85,SW,232,0.0,0.0,70,0.00,,,0.00,Weather View 32 v70,2013-08-06 09:10:00,
2013-08-06 05:20:00,62.8,53.2,28.85,SW,232,0.0,0.0,71,0.00,,,0.00,Weather View 32 v70,2013-08-06 09:20:00,
2013-08-06 05:30:00,62.6,53.8,28.88,SW,232,0.0,0.0,73,0.00,,,0.00,Weather View 32 v70,2013-08-06 09:30:00,
2013-08-06 05:40:00,62.4,54.4,28.85,SW,232,0.0,0.0,75,0.00,,,0.00,Weather View 32 v70,2013-08-06 09:40:00,
2013-08-06 05:50:00,62.2,55.3,28.85,SW,232,0.0,0.0,78,0.00,,,0.00,Weather View 32 v70,2013-08-06 09:50:00,
2013-08-06 05:59:00,62.1,55.8,28.85,SW,232,0.0,0.0,80,0.00,,,0.00,Weather View 32 v70,2013-08-06 09:59:00,
2013-08-06 06:09:00,62.1,56.8,28.85,SW,232,0.0,0.0,83,0.00,,,0.00,Weather View 32 v70,2013-08-06 10:09:00,
2013-08-06 06:20:00,62.1,57.5,28.85,SW,232,0.0,0.0,85,0.00,,,0.00,Weather View 32 v70,2013-08-06 10:20:00,
2013-08-06 06:30:00,62.1,58.1,28.85,SW,232,0.0,0.0,87,0.00,,,0.00,Weather View 32 v70,2013-08-06 10:30:00,
2013-08-06 06:40:00,62.1,58.1,28.85,SW,232,0.0,0.0,87,0.00,,,0.00,Weather View 32 v70,2013-08-06 10:40:00,
2013-08-06 06:50:00,62.2,58.6,28.85,SW,232,0.0,0.0,88,0.00,,,0.00,Weather View 32 v70,2013-08-06 10:50:00,
2013-08-06 07:00:00,62.2,58.6,28.85,SW,232,0.0,0.0,88,0.00,,,0.00,Weather View 32 v70,2013-08-06 11:00:00,
2013-08-06 07:05:00,62.2,58.6,28.85,SW,232,0.0,0.0,88,0.00,,,0.00,Weather View 32 v70,2013-08-06 11:05:00,
2013-08-06 07:20:00,62.4,59.1,28.85,SW,232,0.0,0.0,89,0.00,,,0.00,Weather View 32 v70,2013-08-06 11:20:00,
2013-08-06 07:29:00,62.6,59.3,28.85,SW,232,0.0,0.0,89,0.00,,,0.00,Weather View 32 v70,2013-08-06 11:29:00,
2013-08-06 07:40:00,62.6,59.0,28.85,SW,232,0.0,0.0,88,0.00,,,0.00,Weather View 32 v70,2013-08-06 11:40:00,
2013-08-06 07:50:00,63.0,59.3,28.85,SW,232,0.0,0.0,88,0.00,,,0.00,Weather View 32 v70,2013-08-06 11:50:00,
2013-08-06 08:00:00,63.0,59.3,28.85,SW,232,0.0,0.0,88,0.00,,,0.00,Weather View 32 v70,2013-08-06 12:00:00,
2013-08-06 08:06:00,63.0,59.3,28.85,SW,232,0.0,0.0,88,0.00,,,0.00,Weather View 32 v70,2013-08-06 12:06:00,
2013-08-06 08:20:00,63.5,59.5,28.88,SW,232,0.0,0.0,87,0.00,,,0.00,Weather View 32 v70,2013-08-06 12:20:00,
2013-08-06 08:30:00,63.9,59.2,28.88,SW,232,0.0,0.0,85,0.00,,,0.00,Weather View 32 v70,2013-08-06 12:30:00,
2013-08-06 08:40:00,64.0,58.8,28.85,SW,232,0.0,0.0,83,0.00,,,0.00,Weather View 32 v70,2013-08-06 12:40:00,
2013-08-06 08:50:00,64.0,58.4,28.85,SW,232,0.0,0.0,82,0.00,,,0.00,Weather View 32 v70,2013-08-06 12:50:00,
2013-08-06 09:00:00,63.9,58.2,28.85,SSW,201,0.0,0.0,82,0.00,,,0.00,Weather View 32 v70,2013-08-06 13:00:00,
2013-08-06 09:07:00,63.9,58.2,28.85,SSW,201,0.0,0.0,82,0.00,,,0.00,Weather View 32 v70,2013-08-06 13:07:00,
2013-08-06 09:20:00,64.0,58.4,28.85,SSW,201,0.0,0.0,82,0.00,,,0.00,Weather View 32 v70,2013-08-06 13:20:00,
2013-08-06 09:30:00,64.6,58.6,28.85,SSW,201,0.0,0.0,81,0.00,,,0.00,Weather View 32 v70,2013-08-06 13:30:00,
2013-08-06 09:40:00,64.9,58.2,28.85,SSW,201,0.0,0.0,79,0.00,,,0.00,Weather View 32 v70,2013-08-06 13:40:00,
2013-08-06 09:50:00,65.1,57.7,28.85,SSW,201,0.0,2.0,77,0.00,,,0.00,Weather View 32 v70,2013-08-06 13:50:00,
2013-08-06 10:00:00,65.5,57.3,28.85,SSW,201,0.0,3.0,75,0.00,,,0.00,Weather View 32 v70,2013-08-06 14:00:00,
2013-08-06 10:08:00,65.5,57.3,28.85,SSW,201,0.0,3.0,75,0.00,,,0.00,Weather View 32 v70,2013-08-06 14:08:00,
2013-08-06 10:20:00,65.7,56.7,28.85,SSW,201,0.0,4.0,73,0.00,,,0.00,Weather View 32 v70,2013-08-06 14:20:00,
2013-08-06 10:30:00,65.5,56.9,28.88,SSW,195,0.0,4.0,74,0.00,,,0.00,Weather View 32 v70,2013-08-06 14:30:00,
2013-08-06 10:40:00,65.1,58.8,28.88,SSW,201,0.0,4.0,80,0.00,,,0.00,Weather View 32 v70,2013-08-06 14:40:00,
2013-08-06 10:50:00,64.8,59.1,28.88,SSW,192,4.0,4.0,82,0.04,,,0.04,Weather View 32 v70,2013-08-06 14:50:00,
2013-08-06 11:00:00,64.4,59.8,28.88,SSW,201,0.0,4.0,85,0.04,,,0.04,Weather View 32 v70,2013-08-06 15:00:00,
2013-08-06 11:08:00,64.4,59.8,28.88,SSW,201,0.0,4.0,85,0.04,,,0.04,Weather View 32 v70,2013-08-06 15:08:00,
2013-08-06 11:20:00,64.4,60.4,28.85,SSW,201,0.0,4.0,87,0.04,,,0.04,Weather View 32 v70,2013-08-06 15:20:00,
2013-08-06 11:30:00,65.5,61.5,28.85,SSW,201,0.0,4.0,87,0.04,,,0.04,Weather View 32 v70,2013-08-06 15:30:00,
2013-08-06 11:40:00,66.2,61.2,28.85,SSW,201,0.0,4.0,84,0.04,,,0.04,Weather View 32 v70,2013-08-06 15:40:00,
2013-08-06 11:50:00,67.6,61.2,28.85,South,178,0.0,4.0,80,0.00,,,0.04,Weather View 32 v70,2013-08-06 15:50:00,
2013-08-06 12:00:00,68.4,59.0,28.85,South,189,0.0,2.0,72,0.00,,,0.04,Weather View 32 v70,2013-08-06 16:00:00,
2013-08-06 12:09:00,68.4,59.0,28.85,South,189,0.0,2.0,72,0.00,,,0.04,Weather View 32 v70,2013-08-06 16:09:00,
2013-08-06 12:20:00,71.1,56.9,28.85,SSW,204,0.0,4.0,61,0.00,,,0.04,Weather View 32 v70,2013-08-06 16:20:00,
2013-08-06 12:30:00,71.2,56.6,28.85,SSW,198,4.0,5.0,60,0.00,,,0.04,Weather View 32 v70,2013-08-06 16:30:00,
2013-08-06 12:40:00,71.4,57.2,28.85,SSW,193,3.0,5.0,61,0.00,,,0.04,Weather View 32 v70,2013-08-06 16:40:00,
2013-08-06 12:50:00,72.0,56.3,28.85,SSW,197,2.0,5.0,58,0.00,,,0.04,Weather View 32 v70,2013-08-06 16:50:00,
2013-08-06 13:00:00,71.8,56.6,28.85,SSW,205,2.0,5.0,59,0.00,,,0.04,Weather View 32 v70,2013-08-06 17:00:00,
2013-08-06 13:10:00,71.6,56.0,28.85,SSW,213,0.0,5.0,58,0.00,,,0.04,Weather View 32 v70,2013-08-06 17:10:00,
2013-08-06 13:20:00,71.4,55.3,28.85,SSW,193,4.0,5.0,57,0.00,,,0.04,Weather View 32 v70,2013-08-06 17:20:00,
2013-08-06 13:30:00,72.1,57.9,28.85,South,188,0.0,5.0,61,0.00,,,0.04,Weather View 32 v70,2013-08-06 17:30:00,
2013-08-06 13:40:00,72.9,54.7,28.85,SW,216,0.0,5.0,53,0.00,,,0.04,Weather View 32 v70,2013-08-06 17:40:00,
2013-08-06 13:50:00,74.7,56.3,28.85,SW,216,0.0,5.0,53,0.00,,,0.04,Weather View 32 v70,2013-08-06 17:50:00,
2013-08-06 14:00:00,75.2,53.5,28.85,SW,217,0.0,5.0,47,0.00,,,0.04,Weather View 32 v70,2013-08-06 18:00:00,
2013-08-06 14:10:00,74.5,55.1,28.85,SSW,203,3.0,5.0,51,0.00,,,0.04,Weather View 32 v70,2013-08-06 18:10:00,
2013-08-06 14:20:00,73.8,56.0,28.85,SSW,203,0.0,5.0,54,0.00,,,0.04,Weather View 32 v70,2013-08-06 18:20:00,
2013-08-06 14:30:00,75.4,54.3,28.82,WSW,249,0.0,5.0,48,0.00,,,0.04,Weather View 32 v70,2013-08-06 18:30:00,
2013-08-06 14:40:00,73.9,55.1,28.85,South,183,0.0,5.0,52,0.00,,,0.04,Weather View 32 v70,2013-08-06 18:40:00,
2013-08-06 14:50:00,74.3,56.5,28.85,SW,214,0.0,5.0,54,0.00,,,0.04,Weather View 32 v70,2013-08-06 18:50:00,
2013-08-06 15:00:00,74.3,56.0,28.82,SW,214,0.0,4.0,53,0.00,,,0.04,Weather View 32 v70,2013-08-06 19:00:00,
2013-08-06 15:10:00,73.4,55.7,28.82,SW,214,0.0,4.0,54,0.00,,,0.04,Weather View 32 v70,2013-08-06 19:10:00,
2013-08-06 15:20:00,73.6,57.8,28.82,SW,214,0.0,4.0,58,0.00,,,0.04,Weather View 32 v70,2013-08-06 19:20:00,
2013-08-06 15:30:00,74.5,55.6,28.82,SSW,194,0.0,4.0,52,0.00,,,0.04,Weather View 32 v70,2013-08-06 19:30:00,
2013-08-06 15:40:00,74.7,54.7,28.82,SSE,156,0.0,5.0,50,0.00,,,0.04,Weather View 32 v70,2013-08-06 19:40:00,
2013-08-06 15:50:00,74.3,55.5,28.82,South,186,3.0,5.0,52,0.00,,,0.04,Weather View 32 v70,2013-08-06 19:50:00,
2013-08-06 16:00:00,75.4,58.5,28.82,SSW,199,0.0,5.0,56,0.00,,,0.04,Weather View 32 v70,2013-08-06 20:00:00,
2013-08-06 16:10:00,75.4,55.9,28.82,SSW,203,0.0,5.0,51,0.00,,,0.04,Weather View 32 v70,2013-08-06 20:10:00,
2013-08-06 16:20:00,76.3,55.1,28.82,South,187,2.0,5.0,48,0.00,,,0.04,Weather View 32 v70,2013-08-06 20:20:00,
2013-08-06 16:30:00,75.6,55.0,28.82,SSW,197,2.0,5.0,49,0.00,,,0.04,Weather View 32 v70,2013-08-06 20:30:00,
2013-08-06 16:40:00,75.4,55.9,28.82,SSW,201,4.0,5.0,51,0.00,,,0.04,Weather View 32 v70,2013-08-06 20:40:00,
2013-08-06 16:50:00,75.9,56.4,28.82,SSW,196,0.0,5.0,51,0.00,,,0.04,Weather View 32 v70,2013-08-06 20:50:00,
2013-08-06 17:00:00,75.6,56.1,28.82,SSW,206,0.0,5.0,51,0.00,,,0.04,Weather View 32 v70,2013-08-06 21:00:00,
2013-08-06 17:10:00,74.7,56.3,28.82,SSW,206,3.0,4.0,53,0.00,,,0.04,Weather View 32 v70,2013-08-06 21:10:00,
2013-08-06 17:14:00,74.7,56.3,28.82,SSW,206,3.0,4.0,53,0.00,,,0.04,Weather View 32 v70,2013-08-06 21:14:00,
2013-08-06 17:20:00,74.7,56.3,28.82,SSW,199,3.0,4.0,53,0.00,,,0.04,Weather View 32 v70,2013-08-06 21:20:00,
2013-08-06 17:30:00,75.0,56.1,28.82,SSW,199,0.0,4.0,52,0.00,,,0.04,Weather View 32 v70,2013-08-06 21:30:00,
2013-08-06 17:40:00,74.8,56.5,28.82,SSW,199,3.0,4.0,53,0.00,,,0.04,Weather View 32 v70,2013-08-06 21:40:00,
2013-08-06 17:50:00,73.2,58.5,28.82,SSW,205,3.0,4.0,60,0.04,,,0.08,Weather View 32 v70,2013-08-06 21:50:00,
2013-08-06 18:00:00,71.2,58.8,28.82,SSW,195,0.0,4.0,65,0.04,,,0.08,Weather View 32 v70,2013-08-06 22:00:00,
2013-08-06 18:10:00,71.6,61.7,28.79,SSW,195,0.0,4.0,71,0.04,,,0.08,Weather View 32 v70,2013-08-06 22:10:00,
2013-08-06 18:15:00,71.6,61.7,28.79,SSW,195,0.0,4.0,71,0.04,,,0.08,Weather View 32 v70,2013-08-06 22:15:00,
2013-08-06 18:30:00,72.7,63.1,28.79,SSW,195,0.0,4.0,72,0.04,,,0.08,Weather View 32 v70,2013-08-06 22:30:00,
2013-08-06 18:40:00,72.9,62.9,28.79,SSW,195,0.0,4.0,71,0.04,,,0.08,Weather View 32 v70,2013-08-06 22:40:00,
2013-08-06 18:50:00,73.0,63.0,28.79,SSW,195,0.0,4.0,71,0.00,,,0.08,Weather View 32 v70,2013-08-06 22:50:00,
2013-08-06 19:00:00,73.0,63.0,28.79,SSW,195,0.0,0.0,71,0.00,,,0.08,Weather View 32 v70,2013-08-06 23:00:00,
2013-08-06 19:10:00,72.9,63.7,28.79,SSW,195,0.0,0.0,73,0.00,,,0.08,Weather View 32 v70,2013-08-06 23:10:00,
2013-08-06 19:16:00,72.9,63.7,28.79,SSW,195,0.0,0.0,73,0.00,,,0.08,Weather View 32 v70,2013-08-06 23:16:00,
2013-08-06 19:30:00,72.5,63.3,28.82,SSW,195,0.0,0.0,73,0.00,,,0.08,Weather View 32 v70,2013-08-06 23:30:00,
2013-08-06 19:40:00,72.3,62.8,28.79,SSW,195,0.0,0.0,72,0.00,,,0.08,Weather View 32 v70,2013-08-06 23:40:00,
2013-08-06 19:50:00,72.3,63.5,28.79,SSW,195,0.0,0.0,74,0.00,,,0.08,Weather View 32 v70,2013-08-06 23:50:00,
2013-08-06 20:00:00,72.1,63.0,28.79,SSW,195,0.0,0.0,73,0.00,,,0.08,Weather View 32 v70,2013-08-07 00:00:00,
2013-08-06 20:10:00,71.8,63.0,28.79,SSW,195,0.0,0.0,74,0.00,,,0.08,Weather View 32 v70,2013-08-07 00:10:00,
2013-08-06 20:16:00,71.8,63.0,28.79,SSW,195,0.0,0.0,74,0.00,,,0.08,Weather View 32 v70,2013-08-07 00:16:00,
2013-08-06 20:30:00,71.1,62.7,28.79,SSW,195,0.0,0.0,75,0.00,,,0.08,Weather View 32 v70,2013-08-07 00:30:00,
2013-08-06 20:40:00,70.7,62.7,28.79,SSW,195,0.0,0.0,76,0.00,,,0.08,Weather View 32 v70,2013-08-07 00:40:00,
2013-08-06 20:50:00,70.2,63.0,28.79,SSW,195,0.0,0.0,78,0.00,,,0.08,Weather View 32 v70,2013-08-07 00:50:00,
2013-08-06 21:00:00,69.8,63.3,28.82,SSW,195,0.0,0.0,80,0.00,,,0.08,Weather View 32 v70,2013-08-07 01:00:00,
2013-08-06 21:10:00,69.6,63.2,28.79,SSW,195,0.0,0.0,80,0.00,,,0.08,Weather View 32 v70,2013-08-07 01:10:00,
2013-08-06 21:17:00,69.6,63.2,28.79,SSW,195,0.0,0.0,80,0.00,,,0.08,Weather View 32 v70,2013-08-07 01:17:00,
2013-08-06 21:30:00,69.1,63.3,28.82,SSW,195,0.0,0.0,82,0.00,,,0.08,Weather View 32 v70,2013-08-07 01:30:00,
2013-08-06 21:40:00,68.7,63.0,28.79,SSW,195,0.0,0.0,82,0.00,,,0.08,Weather View 32 v70,2013-08-07 01:40:00,
2013-08-06 21:50:00,68.5,63.2,28.79,SSW,195,0.0,0.0,83,0.00,,,0.08,Weather View 32 v70,2013-08-07 01:50:00,
2013-08-06 22:00:00,68.2,63.1,28.82,SSW,195,0.0,0.0,84,0.00,,,0.08,Weather View 32 v70,2013-08-07 02:00:00,
2013-08-06 22:10:00,68.2,63.5,28.82,SSW,195,0.0,0.0,85,0.00,,,0.08,Weather View 32 v70,2013-08-07 02:10:00,
2013-08-06 22:18:00,68.2,63.5,28.82,SSW,195,0.0,0.0,85,0.00,,,0.08,Weather View 32 v70,2013-08-07 02:18:00,
2013-08-06 22:30:00,68.0,64.3,28.79,SSW,195,0.0,0.0,88,0.00,,,0.08,Weather View 32 v70,2013-08-07 02:30:00,
2013-08-06 22:40:00,68.2,64.5,28.82,SSW,195,0.0,0.0,88,0.00,,,0.08,Weather View 32 v70,2013-08-07 02:40:00,
2013-08-06 22:50:00,68.2,64.5,28.82,SSW,195,0.0,0.0,88,0.00,,,0.08,Weather View 32 v70,2013-08-07 02:50:00,
2013-08-06 23:00:00,68.2,64.8,28.82,SSW,195,0.0,0.0,89,0.00,,,0.08,Weather View 32 v70,2013-08-07 03:00:00,
2013-08-06 23:10:00,68.2,64.8,28.82,SSW,195,0.0,0.0,89,0.00,,,0.08,Weather View 32 v70,2013-08-07 03:10:00,
2013-08-06 23:19:00,68.2,64.8,28.82,SSW,195,0.0,0.0,89,0.00,,,0.08,Weather View 32 v70,2013-08-07 03:19:00,
2013-08-06 23:30:00,68.2,64.5,28.82,SSW,195,0.0,0.0,88,0.00,,,0.08,Weather View 32 v70,2013-08-07 03:30:00,
2013-08-06 23:40:00,68.0,64.3,28.82,SSW,195,0.0,0.0,88,0.00,,,0.08,Weather View 32 v70,2013-08-07 03:40:00,
2013-08-06 23:50:00,68.0,64.3,28.82,SSW,195,0.0,0.0,88,0.00,,,0.08,Weather View 32 v70,2013-08-07 03:50:00,